Terminal Aerodrome Forecast
Issued by NWS

Home | Current Version | Previous Version | Text Only | Print | Product List | Glossary On
Versions: 1 2 3 4 5 6 7 8 9 10 11 12
777
FTUS43 KLSX 241735
TAFCPS
TAF
KCPS 241735Z 2418/2518 18010KT P6SM BKN035
     FM242000 18012KT P6SM VCTS BKN040CB
     FM250000 17006KT P6SM BKN150
     FM251500 17008KT P6SM VCTS BKN050CB=

USA.gov is the U.S. government's official web portal to all federal, state and local government web resources and services.